sensor_id;sensor_type;location;lat;lon;timestamp;pressure;altitude;pressure_sealevel;temperature;humidity
79028;BME280;68427;48.476;19.102;2023-07-28T00:01:58;97115.56;;;13.46;78.30
79028;BME280;68427;48.476;19.102;2023-07-28T00:04:24;97118.19;;;13.46;77.71
79028;BME280;68427;48.476;19.102;2023-07-28T00:06:49;97113.50;;;13.48;78.19
79028;BME280;68427;48.476;19.102;2023-07-28T00:09:15;97116.13;;;13.48;78.45
79028;BME280;68427;48.476;19.102;2023-07-28T00:11:42;97119.34;;;13.50;78.50
79028;BME280;68427;48.476;19.102;2023-07-28T00:14:08;97117.53;;;13.51;77.80
79028;BME280;68427;48.476;19.102;2023-07-28T00:16:33;97118.09;;;13.53;78.33
79028;BME280;68427;48.476;19.102;2023-07-28T00:18:59;97116.28;;;13.53;77.86
79028;BME280;68427;48.476;19.102;2023-07-28T00:21:26;97105.75;;;13.53;78.59
79028;BME280;68427;48.476;19.102;2023-07-28T00:23:51;97109.75;;;13.56;79.21
79028;BME280;68427;48.476;19.102;2023-07-28T00:26:17;97102.44;;;13.58;77.46
79028;BME280;68427;48.476;19.102;2023-07-28T00:28:44;97100.47;;;13.53;77.89
79028;BME280;68427;48.476;19.102;2023-07-28T00:31:10;97097.41;;;13.56;78.27
79028;BME280;68427;48.476;19.102;2023-07-28T00:33:36;97092.72;;;13.58;78.57
79028;BME280;68427;48.476;19.102;2023-07-28T00:36:03;97101.19;;;13.60;78.74
79028;BME280;68427;48.476;19.102;2023-07-28T00:38:28;97097.31;;;13.63;79.23
79028;BME280;68427;48.476;19.102;2023-07-28T00:40:54;97099.75;;;13.65;79.07
79028;BME280;68427;48.476;19.102;2023-07-28T00:43:20;97102.38;;;13.65;77.64
79028;BME280;68427;48.476;19.102;2023-07-28T00:45:47;97094.03;;;13.68;78.21
79028;BME280;68427;48.476;19.102;2023-07-28T00:48:14;97092.63;;;13.65;78.19
79028;BME280;68427;48.476;19.102;2023-07-28T00:50:44;97103.97;;;13.66;78.88
79028;BME280;68427;48.476;19.102;2023-07-28T00:53:10;97094.22;;;13.66;78.84
79028;BME280;68427;48.476;19.102;2023-07-28T00:55:37;97102.94;;;13.67;78.97
79028;BME280;68427;48.476;19.102;2023-07-28T00:58:03;97096.41;;;13.69;79.41
79028;BME280;68427;48.476;19.102;2023-07-28T01:00:29;97096.78;;;13.73;80.02
79028;BME280;68427;48.476;19.102;2023-07-28T01:02:56;97095.41;;;13.70;80.55
79028;BME280;68427;48.476;19.102;2023-07-28T01:05:26;97091.31;;;13.74;80.23
79028;BME280;68427;48.476;19.102;2023-07-28T01:08:01;97081.56;;;13.75;79.97
79028;BME280;68427;48.476;19.102;2023-07-28T01:10:30;97073.09;;;13.73;79.91
79028;BME280;68427;48.476;19.102;2023-07-28T01:12:57;97070.81;;;13.76;80.17
79028;BME280;68427;48.476;19.102;2023-07-28T01:15:23;97071.38;;;13.78;80.04
79028;BME280;68427;48.476;19.102;2023-07-28T01:17:49;97071.97;;;13.80;80.76
79028;BME280;68427;48.476;19.102;2023-07-28T01:20:17;97079.84;;;13.80;80.14
79028;BME280;68427;48.476;19.102;2023-07-28T01:22:50;97073.22;;;13.78;80.26
79028;BME280;68427;48.476;19.102;2023-07-28T01:25:28;97071.84;;;13.75;79.70
79028;BME280;68427;48.476;19.102;2023-07-28T01:27:56;97067.38;;;13.76;79.75
79028;BME280;68427;48.476;19.102;2023-07-28T01:30:23;97069.78;;;13.77;79.19
79028;BME280;68427;48.476;19.102;2023-07-28T01:32:54;97074.59;;;13.80;79.35
79028;BME280;68427;48.476;19.102;2023-07-28T01:35:19;97065.78;;;13.75;79.13
79028;BME280;68427;48.476;19.102;2023-07-28T01:37:45;97073.69;;;13.75;78.50
79028;BME280;68427;48.476;19.102;2023-07-28T01:40:16;97071.72;;;13.70;78.65
79028;BME280;68427;48.476;19.102;2023-07-28T01:42:41;97078.81;;;13.70;78.43
79028;BME280;68427;48.476;19.102;2023-07-28T01:45:09;97066.91;;;13.67;78.87
79028;BME280;68427;48.476;19.102;2023-07-28T01:47:35;97060.03;;;13.66;79.63
79028;BME280;68427;48.476;19.102;2023-07-28T01:50:00;97043.31;;;13.60;79.56
79028;BME280;68427;48.476;19.102;2023-07-28T01:52:26;97039.50;;;13.56;79.76
79028;BME280;68427;48.476;19.102;2023-07-28T01:54:52;97044.34;;;13.59;79.66
79028;BME280;68427;48.476;19.102;2023-07-28T01:57:17;97041.25;;;13.63;79.79
79028;BME280;68427;48.476;19.102;2023-07-28T01:59:43;97033.94;;;13.65;79.76
79028;BME280;68427;48.476;19.102;2023-07-28T02:02:10;97035.31;;;13.67;79.51
79028;BME280;68427;48.476;19.102;2023-07-28T02:04:36;97035.53;;;13.66;80.70
79028;BME280;68427;48.476;19.102;2023-07-28T02:07:02;97031.66;;;13.68;79.40
79028;BME280;68427;48.476;19.102;2023-07-28T02:09:27;97033.03;;;13.71;79.68
79028;BME280;68427;48.476;19.102;2023-07-28T02:11:53;97031.31;;;13.65;80.29
79028;BME280;68427;48.476;19.102;2023-07-28T02:14:19;97036.00;;;13.63;79.18
79028;BME280;68427;48.476;19.102;2023-07-28T02:16:44;97035.75;;;13.64;79.69
79028;BME280;68427;48.476;19.102;2023-07-28T02:19:12;97030.50;;;13.64;79.57
79028;BME280;68427;48.476;19.102;2023-07-28T02:21:37;97033.56;;;13.61;79.95
79028;BME280;68427;48.476;19.102;2023-07-28T02:24:04;97025.22;;;13.64;79.72
79028;BME280;68427;48.476;19.102;2023-07-28T02:26:29;97023.97;;;13.67;79.71
79028;BME280;68427;48.476;19.102;2023-07-28T02:28:55;97037.13;;;13.67;79.85
79028;BME280;68427;48.476;19.102;2023-07-28T02:31:21;97040.81;;;13.66;80.33
79028;BME280;68427;48.476;19.102;2023-07-28T02:33:46;97033.38;;;13.63;79.94
79028;BME280;68427;48.476;19.102;2023-07-28T02:36:13;97033.94;;;13.65;79.35
79028;BME280;68427;48.476;19.102;2023-07-28T02:38:39;97038.16;;;13.66;79.31
79028;BME280;68427;48.476;19.102;2023-07-28T02:41:05;97039.22;;;13.65;79.48
79028;BME280;68427;48.476;19.102;2023-07-28T02:43:30;97034.50;;;13.67;80.46
79028;BME280;68427;48.476;19.102;2023-07-28T02:45:57;97046.84;;;13.66;80.41
79028;BME280;68427;48.476;19.102;2023-07-28T02:48:23;97048.69;;;13.66;80.48
79028;BME280;68427;48.476;19.102;2023-07-28T02:50:50;97047.44;;;13.68;80.89
79028;BME280;68427;48.476;19.102;2023-07-28T02:53:18;97047.44;;;13.68;81.53
79028;BME280;68427;48.476;19.102;2023-07-28T02:55:44;97042.75;;;13.70;80.84
79028;BME280;68427;48.476;19.102;2023-07-28T02:58:10;97038.88;;;13.73;81.17
79028;BME280;68427;48.476;19.102;2023-07-28T03:00:37;97041.63;;;13.78;82.08
79028;BME280;68427;48.476;19.102;2023-07-28T03:03:02;97039.13;;;13.83;81.48
79028;BME280;68427;48.476;19.102;2023-07-28T03:05:28;97043.94;;;13.86;81.26
79028;BME280;68427;48.476;19.102;2023-07-28T03:07:54;97048.50;;;13.91;81.21
79028;BME280;68427;48.476;19.102;2023-07-28T03:10:21;97040.16;;;13.94;80.92
79028;BME280;68427;48.476;19.102;2023-07-28T03:12:46;97042.31;;;13.97;81.40
79028;BME280;68427;48.476;19.102;2023-07-28T03:15:12;97035.59;;;14.01;80.42
79028;BME280;68427;48.476;19.102;2023-07-28T03:17:38;97035.50;;;14.08;79.13
79028;BME280;68427;48.476;19.102;2023-07-28T03:20:04;97026.78;;;14.19;76.33
79028;BME280;68427;48.476;19.102;2023-07-28T03:22:30;97034.91;;;14.29;76.89
79028;BME280;68427;48.476;19.102;2023-07-28T03:24:56;97032.59;;;14.44;74.07
79028;BME280;68427;48.476;19.102;2023-07-28T03:27:23;97034.69;;;14.54;74.57
79028;BME280;68427;48.476;19.102;2023-07-28T03:29:50;97036.41;;;14.60;73.78
79028;BME280;68427;48.476;19.102;2023-07-28T03:32:15;97043.38;;;14.66;74.38
79028;BME280;68427;48.476;19.102;2023-07-28T03:34:41;97052.91;;;14.67;75.05
79028;BME280;68427;48.476;19.102;2023-07-28T03:37:07;97052.66;;;14.69;77.34
79028;BME280;68427;48.476;19.102;2023-07-28T03:39:32;97049.44;;;14.67;77.77
79028;BME280;68427;48.476;19.102;2023-07-28T03:41:58;97051.28;;;14.66;77.50
79028;BME280;68427;48.476;19.102;2023-07-28T03:44:25;97048.06;;;14.64;78.42
79028;BME280;68427;48.476;19.102;2023-07-28T03:46:51;97041.00;;;14.65;77.97
79028;BME280;68427;48.476;19.102;2023-07-28T03:49:17;97039.16;;;14.65;77.55
79028;BME280;68427;48.476;19.102;2023-07-28T03:51:42;97039.72;;;14.67;77.31
79028;BME280;68427;48.476;19.102;2023-07-28T03:54:08;97039.47;;;14.69;76.95
79028;BME280;68427;48.476;19.102;2023-07-28T03:56:34;97045.31;;;14.71;75.97
79028;BME280;68427;48.476;19.102;2023-07-28T03:58:59;97050.94;;;14.75;76.16
79028;BME280;68427;48.476;19.102;2023-07-28T04:01:27;97048.84;;;14.77;76.29
79028;BME280;68427;48.476;19.102;2023-07-28T04:03:52;97052.06;;;14.79;76.67
79028;BME280;68427;48.476;19.102;2023-07-28T04:06:18;97048.41;;;14.80;76.02
79028;BME280;68427;48.476;19.102;2023-07-28T04:08:44;97048.75;;;14.83;76.27
79028;BME280;68427;48.476;19.102;2023-07-28T04:11:10;97042.44;;;14.84;75.74
79028;BME280;68427;48.476;19.102;2023-07-28T04:13:36;97043.56;;;14.88;75.90
79028;BME280;68427;48.476;19.102;2023-07-28T04:16:01;97051.81;;;14.92;76.63
79028;BME280;68427;48.476;19.102;2023-07-28T04:18:30;97050.22;;;14.91;76.59
79028;BME280;68427;48.476;19.102;2023-07-28T04:20:57;97046.22;;;14.88;75.48
79028;BME280;68427;48.476;19.102;2023-07-28T04:23:22;97050.59;;;14.83;76.19
79028;BME280;68427;48.476;19.102;2023-07-28T04:25:48;97047.59;;;14.79;77.13
79028;BME280;68427;48.476;19.102;2023-07-28T04:28:13;97049.44;;;14.79;77.42
79028;BME280;68427;48.476;19.102;2023-07-28T04:30:39;97054.72;;;14.79;76.24
79028;BME280;68427;48.476;19.102;2023-07-28T04:33:05;97053.13;;;14.78;75.89
79028;BME280;68427;48.476;19.102;2023-07-28T04:35:32;97052.31;;;14.77;75.40
79028;BME280;68427;48.476;19.102;2023-07-28T04:37:58;97050.69;;;14.76;74.81
79028;BME280;68427;48.476;19.102;2023-07-28T04:40:23;97058.38;;;14.78;75.35
79028;BME280;68427;48.476;19.102;2023-07-28T04:42:49;97068.94;;;14.78;75.22
79028;BME280;68427;48.476;19.102;2023-07-28T04:45:18;97063.88;;;14.76;75.48
79028;BME280;68427;48.476;19.102;2023-07-28T04:47:43;97068.34;;;14.76;75.28
79028;BME280;68427;48.476;19.102;2023-07-28T04:50:09;97077.06;;;14.76;75.15
79028;BME280;68427;48.476;19.102;2023-07-28T04:52:36;97075.81;;;14.79;74.98
79028;BME280;68427;48.476;19.102;2023-07-28T04:55:02;97075.59;;;14.80;75.37
79028;BME280;68427;48.476;19.102;2023-07-28T04:57:28;97078.78;;;14.82;76.27
79028;BME280;68427;48.476;19.102;2023-07-28T04:59:54;97071.22;;;14.86;76.88
79028;BME280;68427;48.476;19.102;2023-07-28T05:02:19;97084.38;;;14.86;77.68
79028;BME280;68427;48.476;19.102;2023-07-28T05:04:45;97078.78;;;14.82;78.89
79028;BME280;68427;48.476;19.102;2023-07-28T05:07:11;97077.44;;;14.80;78.35
79028;BME280;68427;48.476;19.102;2023-07-28T05:09:38;97077.53;;;14.85;78.83
79028;BME280;68427;48.476;19.102;2023-07-28T05:12:04;97069.03;;;14.83;78.51
79028;BME280;68427;48.476;19.102;2023-07-28T05:14:30;97058.38;;;14.78;77.76
79028;BME280;68427;48.476;19.102;2023-07-28T05:16:56;97046.81;;;14.79;78.46
79028;BME280;68427;48.476;19.102;2023-07-28T05:19:21;97048.97;;;14.82;79.98
79028;BME280;68427;48.476;19.102;2023-07-28T05:21:47;97058.91;;;14.91;78.32
79028;BME280;68427;48.476;19.102;2023-07-28T05:24:13;97055.94;;;15.00;79.80
79028;BME280;68427;48.476;19.102;2023-07-28T05:26:40;97066.19;;;15.25;79.93
79028;BME280;68427;48.476;19.102;2023-07-28T05:29:06;97065.03;;;15.49;78.88
79028;BME280;68427;48.476;19.102;2023-07-28T05:31:31;97066.34;;;15.64;78.83
79028;BME280;68427;48.476;19.102;2023-07-28T05:33:57;97075.19;;;15.69;78.15
79028;BME280;68427;48.476;19.102;2023-07-28T05:36:23;97071.25;;;15.72;77.79
79028;BME280;68427;48.476;19.102;2023-07-28T05:38:48;97070.69;;;15.70;77.73
79028;BME280;68427;48.476;19.102;2023-07-28T05:41:15;97071.03;;;15.73;78.13
79028;BME280;68427;48.476;19.102;2023-07-28T05:43:42;97070.31;;;15.78;78.55
79028;BME280;68427;48.476;19.102;2023-07-28T05:46:07;97064.41;;;15.88;78.28
79028;BME280;68427;48.476;19.102;2023-07-28T05:48:33;97060.00;;;15.93;78.33
79028;BME280;68427;48.476;19.102;2023-07-28T05:50:59;97059.75;;;15.95;77.60
79028;BME280;68427;48.476;19.102;2023-07-28T05:53:24;97061.59;;;15.94;77.17
79028;BME280;68427;48.476;19.102;2023-07-28T05:55:50;97061.16;;;15.97;77.13
79028;BME280;68427;48.476;19.102;2023-07-28T05:58:16;97051.19;;;16.05;76.37
79028;BME280;68427;48.476;19.102;2023-07-28T06:00:43;97051.75;;;16.24;75.83
79028;BME280;68427;48.476;19.102;2023-07-28T06:03:10;97043.75;;;16.35;73.97
79028;BME280;68427;48.476;19.102;2023-07-28T06:05:35;97050.81;;;16.52;73.54
79028;BME280;68427;48.476;19.102;2023-07-28T06:08:01;97055.91;;;16.75;72.31
79028;BME280;68427;48.476;19.102;2023-07-28T06:10:27;97069.44;;;16.96;72.66
79028;BME280;68427;48.476;19.102;2023-07-28T06:12:53;97064.75;;;17.03;71.93
79028;BME280;68427;48.476;19.102;2023-07-28T06:15:19;97065.44;;;17.20;71.00
79028;BME280;68427;48.476;19.102;2023-07-28T06:17:46;97076.03;;;17.20;70.90
79028;BME280;68427;48.476;19.102;2023-07-28T06:20:12;97081.72;;;17.29;70.67
79028;BME280;68427;48.476;19.102;2023-07-28T06:22:37;97079.69;;;17.36;70.89
79028;BME280;68427;48.476;19.102;2023-07-28T06:25:03;97082.38;;;17.41;70.29
79028;BME280;68427;48.476;19.102;2023-07-28T06:27:29;97076.59;;;17.44;69.70
79028;BME280;68427;48.476;19.102;2023-07-28T06:29:55;97079.66;;;17.58;69.61
79028;BME280;68427;48.476;19.102;2023-07-28T06:32:20;97092.63;;;17.60;69.03
79028;BME280;68427;48.476;19.102;2023-07-28T06:34:50;97092.78;;;17.48;69.37
79028;BME280;68427;48.476;19.102;2023-07-28T06:37:17;97093.22;;;17.40;70.24
79028;BME280;68427;48.476;19.102;2023-07-28T06:39:42;97088.13;;;17.33;70.66
79028;BME280;68427;48.476;19.102;2023-07-28T06:42:08;97081.91;;;17.22;70.46
79028;BME280;68427;48.476;19.102;2023-07-28T06:44:34;97082.34;;;16.92;72.08
79028;BME280;68427;48.476;19.102;2023-07-28T06:46:59;97084.69;;;16.89;72.60
79028;BME280;68427;48.476;19.102;2023-07-28T06:49:25;97089.63;;;16.85;72.15
79028;BME280;68427;48.476;19.102;2023-07-28T06:51:52;97091.06;;;16.93;72.71
79028;BME280;68427;48.476;19.102;2023-07-28T06:54:18;97101.25;;;17.01;72.53
79028;BME280;68427;48.476;19.102;2023-07-28T06:56:44;97090.16;;;17.04;72.32
79028;BME280;68427;48.476;19.102;2023-07-28T06:59:09;97085.44;;;17.06;71.99
79028;BME280;68427;48.476;19.102;2023-07-28T07:01:35;97087.88;;;17.13;72.41
79028;BME280;68427;48.476;19.102;2023-07-28T07:04:01;97084.38;;;17.29;72.98
79028;BME280;68427;48.476;19.102;2023-07-28T07:06:27;97077.13;;;17.46;71.55
79028;BME280;68427;48.476;19.102;2023-07-28T07:08:54;97071.16;;;17.56;70.74
79028;BME280;68427;48.476;19.102;2023-07-28T07:11:20;97072.53;;;17.64;71.36
79028;BME280;68427;48.476;19.102;2023-07-28T07:13:46;97080.81;;;17.73;70.93
79028;BME280;68427;48.476;19.102;2023-07-28T07:16:13;97087.13;;;17.88;70.03
79028;BME280;68427;48.476;19.102;2023-07-28T07:18:39;97082.88;;;17.92;69.69
79028;BME280;68427;48.476;19.102;2023-07-28T07:21:05;97071.59;;;18.02;68.25
79028;BME280;68427;48.476;19.102;2023-07-28T07:23:31;97075.66;;;18.15;67.82
79028;BME280;68427;48.476;19.102;2023-07-28T07:25:58;97076.56;;;18.26;67.44
79028;BME280;68427;48.476;19.102;2023-07-28T07:28:24;97071.66;;;18.50;67.33
79028;BME280;68427;48.476;19.102;2023-07-28T07:30:49;97073.19;;;18.83;67.03
79028;BME280;68427;48.476;19.102;2023-07-28T07:33:15;97068.03;;;19.14;66.76
79028;BME280;68427;48.476;19.102;2023-07-28T07:35:41;97073.59;;;19.17;65.04
79028;BME280;68427;48.476;19.102;2023-07-28T07:38:06;97068.81;;;19.14;65.44
79028;BME280;68427;48.476;19.102;2023-07-28T07:40:34;97076.88;;;19.45;65.27
79028;BME280;68427;48.476;19.102;2023-07-28T07:43:01;97074.53;;;19.59;64.41
79028;BME280;68427;48.476;19.102;2023-07-28T07:45:28;97078.81;;;19.70;63.64
79028;BME280;68427;48.476;19.102;2023-07-28T07:47:54;97065.44;;;19.39;61.56
79028;BME280;68427;48.476;19.102;2023-07-28T07:50:20;97065.47;;;19.60;63.64
79028;BME280;68427;48.476;19.102;2023-07-28T07:52:47;97067.16;;;19.87;62.95
79028;BME280;68427;48.476;19.102;2023-07-28T07:55:13;97066.59;;;20.20;59.20
79028;BME280;68427;48.476;19.102;2023-07-28T07:57:39;97060.44;;;20.61;58.94
79028;BME280;68427;48.476;19.102;2023-07-28T08:00:07;97044.81;;;21.14;56.16
79028;BME280;68427;48.476;19.102;2023-07-28T08:02:34;97047.25;;;21.99;54.44
79028;BME280;68427;48.476;19.102;2023-07-28T08:04:59;97037.75;;;22.17;51.52
79028;BME280;68427;48.476;19.102;2023-07-28T08:07:25;97044.19;;;22.46;50.59
79028;BME280;68427;48.476;19.102;2023-07-28T08:09:51;97044.59;;;22.58;50.51
79028;BME280;68427;48.476;19.102;2023-07-28T08:12:17;97042.56;;;22.50;51.56
79028;BME280;68427;48.476;19.102;2023-07-28T08:14:43;97037.47;;;22.48;51.21
79028;BME280;68427;48.476;19.102;2023-07-28T08:17:10;97029.44;;;22.77;50.71
79028;BME280;68427;48.476;19.102;2023-07-28T08:19:36;97028.91;;;22.99;50.51
79028;BME280;68427;48.476;19.102;2023-07-28T08:22:02;97026.84;;;23.15;49.15
79028;BME280;68427;48.476;19.102;2023-07-28T08:24:31;97030.31;;;23.54;50.19
79028;BME280;68427;48.476;19.102;2023-07-28T08:26:56;97032.16;;;24.56;47.87
79028;BME280;68427;48.476;19.102;2023-07-28T08:29:22;97033.22;;;25.61;42.28
79028;BME280;68427;48.476;19.102;2023-07-28T08:31:48;97031.16;;;25.21;43.03
79028;BME280;68427;48.476;19.102;2023-07-28T08:34:15;97033.34;;;24.92;44.78
79028;BME280;68427;48.476;19.102;2023-07-28T08:36:42;97038.41;;;24.66;45.68
79028;BME280;68427;48.476;19.102;2023-07-28T08:39:08;97041.47;;;24.87;44.25
79028;BME280;68427;48.476;19.102;2023-07-28T08:41:35;97035.72;;;24.52;43.59
79028;BME280;68427;48.476;19.102;2023-07-28T08:44:00;97039.06;;;24.44;44.73
79028;BME280;68427;48.476;19.102;2023-07-28T08:46:26;97044.13;;;24.12;46.04
79028;BME280;68427;48.476;19.102;2023-07-28T08:48:52;97042.59;;;23.92;46.42
79028;BME280;68427;48.476;19.102;2023-07-28T08:51:22;97036.00;;;24.18;48.73
79028;BME280;68427;48.476;19.102;2023-07-28T08:53:48;97043.69;;;23.91;48.40
79028;BME280;68427;48.476;19.102;2023-07-28T08:56:13;97037.13;;;23.46;47.15
79028;BME280;68427;48.476;19.102;2023-07-28T08:58:39;97047.94;;;23.92;46.65
79028;BME280;68427;48.476;19.102;2023-07-28T09:01:05;97033.75;;;24.25;46.33
79028;BME280;68427;48.476;19.102;2023-07-28T09:03:31;97033.53;;;24.68;45.05
79028;BME280;68427;48.476;19.102;2023-07-28T09:06:00;97047.84;;;24.63;46.85
79028;BME280;68427;48.476;19.102;2023-07-28T09:08:28;97036.31;;;24.76;44.29
79028;BME280;68427;48.476;19.102;2023-07-28T09:10:55;97046.34;;;24.98;43.02
79028;BME280;68427;48.476;19.102;2023-07-28T09:13:21;97031.94;;;25.58;43.20
79028;BME280;68427;48.476;19.102;2023-07-28T09:15:47;97036.47;;;25.72;41.82
79028;BME280;68427;48.476;19.102;2023-07-28T09:18:15;97035.84;;;25.75;42.89
79028;BME280;68427;48.476;19.102;2023-07-28T09:20:42;97031.91;;;25.95;41.88
79028;BME280;68427;48.476;19.102;2023-07-28T09:23:10;97026.81;;;26.16;42.65
79028;BME280;68427;48.476;19.102;2023-07-28T09:25:37;97034.47;;;26.00;41.91
79028;BME280;68427;48.476;19.102;2023-07-28T09:28:04;97026.91;;;26.33;40.16
79028;BME280;68427;48.476;19.102;2023-07-28T09:30:44;97041.69;;;27.68;37.98
79028;BME280;68427;48.476;19.102;2023-07-28T09:33:10;97027.25;;;27.81;37.90
79028;BME280;68427;48.476;19.102;2023-07-28T09:35:47;97028.88;;;27.21;38.99
79028;BME280;68427;48.476;19.102;2023-07-28T09:38:13;97024.13;;;26.16;41.52
79028;BME280;68427;48.476;19.102;2023-07-28T09:40:41;97024.41;;;26.37;39.96
79028;BME280;68427;48.476;19.102;2023-07-28T09:43:07;97017.13;;;26.68;40.20
79028;BME280;68427;48.476;19.102;2023-07-28T09:45:34;97018.16;;;26.50;40.24
79028;BME280;68427;48.476;19.102;2023-07-28T09:48:02;97019.19;;;26.63;39.61
79028;BME280;68427;48.476;19.102;2023-07-28T09:50:32;97018.09;;;27.39;41.14
79028;BME280;68427;48.476;19.102;2023-07-28T09:53:01;97014.28;;;27.22;38.31
79028;BME280;68427;48.476;19.102;2023-07-28T09:55:28;97010.50;;;26.66;39.22
79028;BME280;68427;48.476;19.102;2023-07-28T09:57:57;97014.94;;;27.19;38.66
79028;BME280;68427;48.476;19.102;2023-07-28T10:00:23;97004.97;;;27.37;38.58
79028;BME280;68427;48.476;19.102;2023-07-28T10:02:50;97001.75;;;28.13;38.56
79028;BME280;68427;48.476;19.102;2023-07-28T10:05:16;97000.09;;;29.06;35.10
79028;BME280;68427;48.476;19.102;2023-07-28T10:07:43;97000.03;;;30.24;33.10
79028;BME280;68427;48.476;19.102;2023-07-28T10:10:11;97001.88;;;29.44;33.07
79028;BME280;68427;48.476;19.102;2023-07-28T10:12:41;97003.41;;;28.35;36.16
79028;BME280;68427;48.476;19.102;2023-07-28T10:15:12;97010.28;;;28.24;37.03
79028;BME280;68427;48.476;19.102;2023-07-28T10:17:43;97010.19;;;27.42;38.73
79028;BME280;68427;48.476;19.102;2023-07-28T10:20:31;97012.88;;;27.86;38.63
79028;BME280;68427;48.476;19.102;2023-07-28T10:23:04;97003.38;;;27.62;38.72
79028;BME280;68427;48.476;19.102;2023-07-28T10:25:33;96999.44;;;27.60;37.99
79028;BME280;68427;48.476;19.102;2023-07-28T10:27:59;97008.47;;;27.29;39.34
79028;BME280;68427;48.476;19.102;2023-07-28T10:30:26;97010.03;;;27.56;39.54
79028;BME280;68427;48.476;19.102;2023-07-28T10:32:54;97014.72;;;27.15;39.30
79028;BME280;68427;48.476;19.102;2023-07-28T10:35:25;97009.81;;;27.18;38.02
79028;BME280;68427;48.476;19.102;2023-07-28T10:37:53;97009.56;;;27.28;38.22
79028;BME280;68427;48.476;19.102;2023-07-28T10:40:22;96998.00;;;27.53;38.03
79028;BME280;68427;48.476;19.102;2023-07-28T10:42:48;96996.41;;;27.44;38.57
79028;BME280;68427;48.476;19.102;2023-07-28T10:45:14;97000.91;;;28.30;36.06
79028;BME280;68427;48.476;19.102;2023-07-28T10:47:42;97004.50;;;29.11;34.41
79028;BME280;68427;48.476;19.102;2023-07-28T10:50:09;97003.25;;;28.49;36.14
79028;BME280;68427;48.476;19.102;2023-07-28T10:52:39;96996.66;;;28.68;34.19
79028;BME280;68427;48.476;19.102;2023-07-28T10:55:05;96996.75;;;29.10;35.23
79028;BME280;68427;48.476;19.102;2023-07-28T10:57:31;96998.69;;;29.84;34.57
79028;BME280;68427;48.476;19.102;2023-07-28T10:59:59;96999.25;;;29.36;33.98
79028;BME280;68427;48.476;19.102;2023-07-28T11:02:26;96998.94;;;29.37;35.40
79028;BME280;68427;48.476;19.102;2023-07-28T11:04:53;96994.09;;;28.71;35.84
79028;BME280;68427;48.476;19.102;2023-07-28T11:07:20;97000.84;;;27.92;36.39
79028;BME280;68427;48.476;19.102;2023-07-28T11:09:45;97001.13;;;28.08;36.96
79028;BME280;68427;48.476;19.102;2023-07-28T11:12:11;96991.28;;;28.59;35.39
79028;BME280;68427;48.476;19.102;2023-07-28T11:14:37;96989.34;;;28.98;34.40
79028;BME280;68427;48.476;19.102;2023-07-28T11:17:05;96995.81;;;28.37;36.18
79028;BME280;68427;48.476;19.102;2023-07-28T11:19:31;96996.25;;;27.66;36.49
79028;BME280;68427;48.476;19.102;2023-07-28T11:22:00;97006.09;;;26.70;38.78
79028;BME280;68427;48.476;19.102;2023-07-28T11:24:25;97003.00;;;26.94;39.15
79028;BME280;68427;48.476;19.102;2023-07-28T11:26:51;97007.19;;;27.70;39.11
79028;BME280;68427;48.476;19.102;2023-07-28T11:29:18;97004.59;;;28.08;36.23
79028;BME280;68427;48.476;19.102;2023-07-28T11:31:44;97004.50;;;27.87;37.68
79028;BME280;68427;48.476;19.102;2023-07-28T11:34:13;96999.72;;;27.93;38.38
79028;BME280;68427;48.476;19.102;2023-07-28T11:36:39;97004.97;;;27.63;39.28
79028;BME280;68427;48.476;19.102;2023-07-28T11:39:08;97001.53;;;26.88;38.22
79028;BME280;68427;48.476;19.102;2023-07-28T11:41:36;97006.59;;;26.81;38.50
79028;BME280;68427;48.476;19.102;2023-07-28T11:44:02;97003.84;;;26.63;39.84
79028;BME280;68427;48.476;19.102;2023-07-28T11:46:35;97002.97;;;26.85;39.88
79028;BME280;68427;48.476;19.102;2023-07-28T11:49:08;97004.16;;;26.62;40.88
79028;BME280;68427;48.476;19.102;2023-07-28T11:51:37;96998.75;;;26.53;42.01
79028;BME280;68427;48.476;19.102;2023-07-28T11:54:05;96997.31;;;27.04;40.51
79028;BME280;68427;48.476;19.102;2023-07-28T11:56:33;96986.69;;;28.12;37.15
79028;BME280;68427;48.476;19.102;2023-07-28T11:58:59;96974.28;;;28.97;35.26
79028;BME280;68427;48.476;19.102;2023-07-28T12:01:25;96969.69;;;28.68;36.41
79028;BME280;68427;48.476;19.102;2023-07-28T12:03:50;96964.78;;;28.70;35.87
79028;BME280;68427;48.476;19.102;2023-07-28T12:06:16;96971.94;;;29.16;34.64
79028;BME280;68427;48.476;19.102;2023-07-28T12:08:42;96962.38;;;28.98;35.22
79028;BME280;68427;48.476;19.102;2023-07-28T12:11:11;96959.72;;;28.89;34.74
79028;BME280;68427;48.476;19.102;2023-07-28T12:13:48;96941.94;;;28.97;34.67
79028;BME280;68427;48.476;19.102;2023-07-28T12:16:40;96941.50;;;28.86;34.69
79028;BME280;68427;48.476;19.102;2023-07-28T12:19:09;96944.22;;;29.49;35.19
79028;BME280;68427;48.476;19.102;2023-07-28T12:21:34;96933.16;;;29.63;32.69
79028;BME280;68427;48.476;19.102;2023-07-28T12:24:00;96929.72;;;29.54;34.89
79028;BME280;68427;48.476;19.102;2023-07-28T12:26:26;96922.56;;;29.58;34.66
79028;BME280;68427;48.476;19.102;2023-07-28T12:28:53;96938.09;;;30.06;33.76
79028;BME280;68427;48.476;19.102;2023-07-28T12:31:18;96928.75;;;29.91;33.87
79028;BME280;68427;48.476;19.102;2023-07-28T12:33:44;96932.16;;;29.13;34.14
79028;BME280;68427;48.476;19.102;2023-07-28T12:36:10;96930.25;;;29.14;34.88
79028;BME280;68427;48.476;19.102;2023-07-28T12:38:35;96925.44;;;29.19;34.49
79028;BME280;68427;48.476;19.102;2023-07-28T12:41:01;96921.34;;;28.92;36.72
79028;BME280;68427;48.476;19.102;2023-07-28T12:43:27;96921.34;;;28.92;36.30
79028;BME280;68427;48.476;19.102;2023-07-28T12:45:55;96920.31;;;29.05;33.81
79028;BME280;68427;48.476;19.102;2023-07-28T12:48:21;96920.31;;;29.60;35.00